createdAt,value
2019-05-22T00:01:46.506Z,2.62
2019-05-22T00:07:12.110Z,2.80
2019-05-22T00:09:44.255Z,2.58
2019-05-22T00:12:15.556Z,2.47
2019-05-22T00:14:46.187Z,2.43
2019-05-22T00:17:15.898Z,2.55
2019-05-22T00:19:46.425Z,2.90
2019-05-22T00:22:23.683Z,3.30
2019-05-22T00:24:54.830Z,3.40
2019-05-22T00:27:26.103Z,3.80
2019-05-22T00:29:57.451Z,4.53
2019-05-22T00:32:27.219Z,3.47
2019-05-22T00:34:57.960Z,3.52
2019-05-22T00:37:29.251Z,4.08
2019-05-22T00:40:00.593Z,4.00
2019-05-22T00:42:31.839Z,4.20
2019-05-22T00:45:02.799Z,4.42
2019-05-22T00:47:32.590Z,5.15
2019-05-22T00:50:04.115Z,4.90
2019-05-22T00:52:46.939Z,4.65
2019-05-22T00:57:50.989Z,4.62
2019-05-22T01:00:22.238Z,5.58
2019-05-22T01:02:52.408Z,4.65
2019-05-22T01:05:23.800Z,5.17
2019-05-22T01:07:53.413Z,4.93
2019-05-22T01:10:23.096Z,4.87
2019-05-22T01:12:56.067Z,4.67
2019-05-22T01:15:27.051Z,5.37
2019-05-22T01:17:56.656Z,4.95
2019-05-22T01:20:29.336Z,4.62
2019-05-22T01:22:59.967Z,4.50
2019-05-22T01:25:31.212Z,4.83
2019-05-22T01:28:02.155Z,4.95
2019-05-22T01:30:42.411Z,4.60
2019-05-22T01:33:18.101Z,4.58
2019-05-22T01:35:55.244Z,4.87
2019-05-22T01:38:25.887Z,4.83
2019-05-22T01:41:05.623Z,4.67
2019-05-22T01:43:35.230Z,5.22
2019-05-22T01:46:07.531Z,4.60
2019-05-22T01:48:39.569Z,4.70
2019-05-22T01:51:11.016Z,4.70
2019-05-22T01:53:42.399Z,5.08
2019-05-22T01:56:13.780Z,5.40
2019-05-22T01:58:43.936Z,5.05
2019-05-22T02:01:16.825Z,6.22
2019-05-22T02:03:48.271Z,6.00
2019-05-22T02:06:19.632Z,5.73
2019-05-22T02:08:55.155Z,5.80
2019-05-22T02:11:26.413Z,6.53
2019-05-22T02:14:11.794Z,7.05
2019-05-22T02:16:56.204Z,6.47
2019-05-22T02:19:14.486Z,7.50
2019-05-22T02:21:44.806Z,7.08
2019-05-22T02:24:16.160Z,7.17
2019-05-22T02:26:46.267Z,8.20
2019-05-22T02:29:17.526Z,7.97
2019-05-22T02:31:48.338Z,8.03
2019-05-22T02:34:19.141Z,7.62
2019-05-22T02:36:48.781Z,8.85
2019-05-22T02:39:20.166Z,8.10
2019-05-22T02:41:55.107Z,8.80
2019-05-22T02:44:27.838Z,9.13
2019-05-22T02:47:16.789Z,9.13
2019-05-22T02:49:34.006Z,9.40
2019-05-22T02:52:03.787Z,10.53
2019-05-22T02:54:33.648Z,10.05
2019-05-22T02:57:03.793Z,10.53
2019-05-22T02:59:33.811Z,11.00
2019-05-22T03:02:04.194Z,12.28
2019-05-22T03:04:56.374Z,11.93
2019-05-22T03:07:26.790Z,13.00
2019-05-22T03:09:56.810Z,13.30
2019-05-22T03:12:30.616Z,14.05
2019-05-22T03:15:02.702Z,14.68
2019-05-22T03:17:33.773Z,14.60
2019-05-22T03:20:07.506Z,14.50
2019-05-22T03:22:44.620Z,15.13
2019-05-22T03:25:15.866Z,14.55
2019-05-22T03:27:52.012Z,15.55
2019-05-22T03:30:24.692Z,15.88
2019-05-22T03:32:55.628Z,16.40
2019-05-22T03:35:26.465Z,17.00
2019-05-22T03:37:57.292Z,17.90
2019-05-22T03:40:27.142Z,17.98
2019-05-22T03:42:57.535Z,17.37
2019-05-22T03:45:28.781Z,16.90
2019-05-22T03:47:59.641Z,17.87
2019-05-22T03:50:31.491Z,18.57
2019-05-22T03:53:05.596Z,18.35
2019-05-22T03:55:35.324Z,17.95
2019-05-22T03:58:05.548Z,17.82
2019-05-22T04:00:35.263Z,18.62
2019-05-22T04:03:05.264Z,18.85
2019-05-22T04:05:36.762Z,18.85
2019-05-22T04:08:08.278Z,19.37
2019-05-22T04:10:41.305Z,20.62
2019-05-22T04:13:11.182Z,20.68
2019-05-22T04:15:40.898Z,19.73
2019-05-22T04:18:14.569Z,20.88
2019-05-22T04:20:44.306Z,19.55
2019-05-22T04:23:14.709Z,20.57
2019-05-22T04:25:44.723Z,19.85
2019-05-22T04:28:14.666Z,18.80
2019-05-22T04:30:44.372Z,18.92
2019-05-22T04:33:14.085Z,18.65
2019-05-22T04:35:44.205Z,18.37
2019-05-22T04:38:15.552Z,19.77
2019-05-22T04:40:49.390Z,20.50
2019-05-22T04:43:21.156Z,22.32
2019-05-22T04:45:51.469Z,21.27
2019-05-22T04:48:22.082Z,19.67
2019-05-22T04:50:52.194Z,20.45
2019-05-22T04:53:21.906Z,21.70
2019-05-22T04:55:52.525Z,22.90
2019-05-22T04:58:26.725Z,21.05
2019-05-22T05:00:56.468Z,22.52
2019-05-22T05:03:26.145Z,21.37
2019-05-22T05:05:57.799Z,22.02
2019-05-22T05:08:27.432Z,22.90
2019-05-22T05:10:58.680Z,22.40
2019-05-22T05:13:28.362Z,21.40
2019-05-22T05:15:58.103Z,21.37
2019-05-22T05:18:27.809Z,22.05
2019-05-22T05:20:57.470Z,23.85
2019-05-22T05:23:27.742Z,21.62
2019-05-22T05:25:58.476Z,21.00
2019-05-22T05:28:28.467Z,21.70
2019-05-22T05:30:58.203Z,22.22
2019-05-22T05:33:28.196Z,21.07
2019-05-22T05:36:00.366Z,21.42
2019-05-22T05:38:34.889Z,21.87
2019-05-22T05:41:04.621Z,21.52
2019-05-22T05:43:34.407Z,21.80
2019-05-22T05:46:04.332Z,21.33
2019-05-22T05:48:36.240Z,21.17
2019-05-22T05:51:09.103Z,22.27
2019-05-22T05:54:02.149Z,23.15
2019-05-22T05:56:32.169Z,21.80
2019-05-22T05:59:03.265Z,22.42
2019-05-22T06:01:37.224Z,23.87
2019-05-22T06:04:07.136Z,22.52
2019-05-22T06:06:42.285Z,23.92
2019-05-22T06:09:15.336Z,23.80
2019-05-22T06:11:49.355Z,24.57
2019-05-22T06:14:26.153Z,24.12
2019-05-22T06:17:23.795Z,22.67
2019-05-22T06:19:56.601Z,23.18
2019-05-22T06:22:26.284Z,22.82
2019-05-22T06:24:57.531Z,24.40
2019-05-22T06:27:31.743Z,25.35
2019-05-22T06:30:06.291Z,23.95
2019-05-22T06:32:55.560Z,23.32
2019-05-22T06:35:26.983Z,22.67
2019-05-22T06:38:25.448Z,23.83
2019-05-22T06:40:56.233Z,23.52
2019-05-22T06:43:30.445Z,21.20
2019-05-22T06:46:01.159Z,22.00
2019-05-22T06:48:30.791Z,23.27
2019-05-22T06:51:00.475Z,20.77
2019-05-22T06:53:30.183Z,21.12
2019-05-22T06:56:01.617Z,21.42
2019-05-22T06:58:31.366Z,21.77
2019-05-22T07:01:01.076Z,21.90
2019-05-22T07:03:31.716Z,21.55
2019-05-22T07:06:02.614Z,22.00
2019-05-22T07:08:32.435Z,22.10
2019-05-22T07:11:02.172Z,23.67
2019-05-22T07:13:31.892Z,23.30
2019-05-22T07:16:02.097Z,23.35
2019-05-22T07:18:32.230Z,23.62
2019-05-22T07:21:01.936Z,24.00
2019-05-22T07:23:32.258Z,24.27
2019-05-22T07:26:02.358Z,23.92
2019-05-22T07:28:32.706Z,23.90
2019-05-22T07:31:03.103Z,24.40
2019-05-22T07:33:32.841Z,24.12
2019-05-22T07:36:10.235Z,25.23
2019-05-22T07:38:35.434Z,25.73
2019-05-22T07:41:06.069Z,25.70
2019-05-22T07:43:40.465Z,23.60
2019-05-22T07:46:07.099Z,24.40
2019-05-22T07:48:37.020Z,24.20
2019-05-22T07:51:06.751Z,23.55
2019-05-22T07:53:36.459Z,23.90
2019-05-22T07:56:10.301Z,22.65
2019-05-22T07:58:41.390Z,23.18
2019-05-22T08:01:11.633Z,21.85
2019-05-22T08:03:41.836Z,22.50
2019-05-22T08:06:11.877Z,21.73
2019-05-22T08:08:42.604Z,21.52
2019-05-22T08:11:14.220Z,19.82
2019-05-22T08:13:44.321Z,20.97
2019-05-22T08:16:14.065Z,20.48
2019-05-22T08:18:44.013Z,19.17
2019-05-22T08:21:14.029Z,21.23
2019-05-22T08:23:43.733Z,19.82
2019-05-22T08:26:15.056Z,20.15
2019-05-22T08:28:44.998Z,19.27
2019-05-22T08:31:15.935Z,20.35
2019-05-22T08:33:45.527Z,18.70
2019-05-22T08:36:16.952Z,17.90
2019-05-22T08:38:47.822Z,18.80
2019-05-22T08:41:19.466Z,18.87
2019-05-22T08:44:13.661Z,19.00
2019-05-22T08:46:20.619Z,18.90
2019-05-22T08:48:50.355Z,17.23
2019-05-22T08:51:20.276Z,18.02
2019-05-22T08:53:51.043Z,18.45
2019-05-22T08:56:21.887Z,17.95
2019-05-22T08:58:51.555Z,19.02
2019-05-22T09:01:21.368Z,19.23
2019-05-22T09:03:51.391Z,17.62
2019-05-22T09:06:23.094Z,18.70
2019-05-22T09:08:52.746Z,19.65
2019-05-22T09:11:22.537Z,18.85
2019-05-22T09:13:52.270Z,18.32
2019-05-22T09:16:22.492Z,19.87
2019-05-22T09:18:52.600Z,20.75
2019-05-22T09:21:22.738Z,21.23
2019-05-22T09:23:53.139Z,22.05
2019-05-22T09:26:23.484Z,21.87
2019-05-22T09:28:53.167Z,21.27
2019-05-22T09:31:22.905Z,21.70
2019-05-22T09:33:52.799Z,21.70
2019-05-22T09:36:22.528Z,21.87
2019-05-22T09:38:52.873Z,22.65
2019-05-22T09:41:22.675Z,22.32
2019-05-22T09:43:52.353Z,21.68
2019-05-22T09:46:22.913Z,21.95
2019-05-22T09:48:55.742Z,22.00
2019-05-22T09:51:26.833Z,23.15
2019-05-22T09:53:56.823Z,23.25
2019-05-22T09:56:26.941Z,22.15
2019-05-22T09:58:58.790Z,21.35
2019-05-22T10:01:27.924Z,20.77
2019-05-22T10:03:57.742Z,22.00
2019-05-22T10:06:27.455Z,21.42
2019-05-22T10:08:58.080Z,21.15
2019-05-22T10:11:28.299Z,22.13
2019-05-22T10:13:58.010Z,22.00
2019-05-22T10:16:27.721Z,21.82
2019-05-22T10:18:57.406Z,22.15
2019-05-22T10:21:28.037Z,21.45
2019-05-22T10:23:57.781Z,21.30
2019-05-22T10:26:27.482Z,22.50
2019-05-22T10:28:57.268Z,21.87
2019-05-22T10:31:27.215Z,20.55
2019-05-22T10:33:56.919Z,21.77
2019-05-22T10:36:26.607Z,21.70
2019-05-22T10:38:56.340Z,21.30
2019-05-22T10:41:25.945Z,21.48
2019-05-22T10:43:55.784Z,19.12
2019-05-22T10:46:27.339Z,20.02
2019-05-22T10:48:56.821Z,19.70
2019-05-22T10:51:26.609Z,19.00
2019-05-22T10:53:56.279Z,19.15
2019-05-22T10:56:25.950Z,18.15
2019-05-22T10:58:55.661Z,17.02
2019-05-22T11:01:25.589Z,17.55
2019-05-22T11:03:55.697Z,17.75
2019-05-22T11:06:25.687Z,18.75
2019-05-22T11:08:55.703Z,17.55
2019-05-22T11:11:26.588Z,16.45
2019-05-22T11:14:01.495Z,16.82
2019-05-22T11:16:28.128Z,18.52
2019-05-22T11:18:58.066Z,17.73
2019-05-22T11:21:29.552Z,17.25
2019-05-22T11:23:59.287Z,16.57
2019-05-22T11:26:29.001Z,17.70
2019-05-22T11:28:58.707Z,19.33
2019-05-22T11:31:29.624Z,19.90
2019-05-22T11:33:59.282Z,19.50
2019-05-22T11:36:28.882Z,18.25
2019-05-22T11:38:58.577Z,18.55
2019-05-22T11:41:28.307Z,19.10
2019-05-22T11:43:58.979Z,19.12
2019-05-22T11:46:28.860Z,18.70
2019-05-22T11:49:00.295Z,18.20
2019-05-22T11:51:29.913Z,18.03
2019-05-22T11:54:08.789Z,20.68
2019-05-22T11:56:30.870Z,20.67
2019-05-22T11:59:00.580Z,19.52
2019-05-22T12:01:31.316Z,20.72
2019-05-22T12:04:01.012Z,18.98
2019-05-22T12:06:30.911Z,19.40
2019-05-22T12:09:00.649Z,20.02
2019-05-22T12:11:30.462Z,18.77
2019-05-22T12:14:01.621Z,18.90
2019-05-22T12:16:31.392Z,18.52
2019-05-22T12:19:01.232Z,18.50
2019-05-22T12:21:30.939Z,19.23
2019-05-22T12:24:01.881Z,18.65
2019-05-22T12:26:31.793Z,18.87
2019-05-22T12:29:01.563Z,18.65
2019-05-22T12:31:31.418Z,19.25
2019-05-22T12:34:01.416Z,20.15
2019-05-22T12:36:31.119Z,18.85
2019-05-22T12:39:01.371Z,17.62
2019-05-22T12:41:32.410Z,19.20
2019-05-22T12:44:02.120Z,18.00
2019-05-22T12:46:34.289Z,18.75
2019-05-22T12:49:08.601Z,18.02
2019-05-22T12:51:35.960Z,17.30
2019-05-22T12:54:05.861Z,16.70
2019-05-22T12:56:37.332Z,16.10
2019-05-22T12:59:08.880Z,18.45
2019-05-22T13:01:38.877Z,17.40
2019-05-22T13:04:09.119Z,16.95
2019-05-22T13:06:39.111Z,17.07
2019-05-22T13:09:09.748Z,17.60
2019-05-22T13:11:39.387Z,15.60
2019-05-22T13:14:10.211Z,14.68
2019-05-22T13:19:04.015Z,14.05
2019-05-22T13:21:34.120Z,16.25
2019-05-22T13:24:08.133Z,14.68
2019-05-22T13:26:38.812Z,15.98
2019-05-22T13:29:08.735Z,16.25
2019-05-22T13:31:38.397Z,16.20
2019-05-22T13:34:08.099Z,18.50
2019-05-22T13:36:38.499Z,19.35
2019-05-22T13:39:09.163Z,19.52
2019-05-22T13:41:38.865Z,18.10
2019-05-22T13:44:09.094Z,20.35
2019-05-22T13:46:38.798Z,21.93
2019-05-22T13:49:08.487Z,21.73
2019-05-22T13:51:38.399Z,21.05
2019-05-22T13:54:08.849Z,22.58
2019-05-22T13:56:38.766Z,23.30
2019-05-22T13:59:08.475Z,22.25
2019-05-22T14:01:38.184Z,21.48
2019-05-22T14:04:07.971Z,21.12
2019-05-22T14:06:37.707Z,23.33
2019-05-22T14:09:13.357Z,22.22
2019-05-22T14:11:43.072Z,21.68
2019-05-22T14:14:12.967Z,21.50
2019-05-22T14:16:48.731Z,21.52
2019-05-22T14:19:13.911Z,20.88
2019-05-22T14:21:50.999Z,21.87
2019-05-22T14:24:16.709Z,20.27
2019-05-22T14:26:46.392Z,20.70
2019-05-22T14:29:16.272Z,20.37
2019-05-22T14:31:45.857Z,19.62
2019-05-22T14:34:15.782Z,18.05
2019-05-22T14:36:45.498Z,18.10
2019-05-22T14:39:15.616Z,17.17
2019-05-22T14:41:45.328Z,18.02
2019-05-22T14:44:15.037Z,18.15
2019-05-22T14:46:44.743Z,18.25
2019-05-22T14:49:14.657Z,17.37
2019-05-22T14:51:44.572Z,17.05
2019-05-22T14:54:14.254Z,17.20
2019-05-22T14:56:43.872Z,17.60
2019-05-22T14:59:13.647Z,17.25
2019-05-22T15:01:43.494Z,17.90
2019-05-22T15:04:13.225Z,18.00
2019-05-22T15:06:42.964Z,17.50
2019-05-22T15:09:12.619Z,18.20
2019-05-22T15:11:42.355Z,18.75
2019-05-22T15:14:12.040Z,18.77
2019-05-22T15:16:41.751Z,17.55
2019-05-22T15:19:11.485Z,17.75
2019-05-22T15:21:41.173Z,18.80
2019-05-22T15:24:10.881Z,16.67
2019-05-22T15:26:40.517Z,17.05
2019-05-22T15:29:10.224Z,17.48
2019-05-22T15:31:41.684Z,15.80
2019-05-22T15:34:12.204Z,17.70
2019-05-22T15:36:41.813Z,15.32
2019-05-22T15:39:13.061Z,15.58
2019-05-22T15:41:42.768Z,15.78
2019-05-22T15:44:12.460Z,14.07
2019-05-22T15:46:42.904Z,13.65
2019-05-22T15:49:12.895Z,13.83
2019-05-22T15:51:42.848Z,12.90
2019-05-22T15:54:13.030Z,13.32
2019-05-22T15:56:43.077Z,11.88
2019-05-22T15:59:14.015Z,11.93
2019-05-22T16:01:43.726Z,12.60
2019-05-22T16:04:15.074Z,11.73
2019-05-22T16:06:45.064Z,11.47
2019-05-22T16:09:16.337Z,11.95
2019-05-22T16:11:49.055Z,11.43
2019-05-22T16:14:20.149Z,10.58
2019-05-22T16:16:50.047Z,9.85
2019-05-22T16:19:19.887Z,10.05
2019-05-22T16:21:49.597Z,8.13
2019-05-22T16:24:21.155Z,8.90
2019-05-22T16:26:50.871Z,7.70
2019-05-22T16:29:20.980Z,8.58
2019-05-22T16:31:50.806Z,9.03
2019-05-22T16:34:20.504Z,8.80
2019-05-22T16:36:50.418Z,8.05
2019-05-22T16:39:20.646Z,8.58
2019-05-22T16:41:50.372Z,11.75
2019-05-22T16:44:20.060Z,8.80
2019-05-22T16:46:50.078Z,7.00
2019-05-22T16:49:20.020Z,6.00
2019-05-22T16:51:49.805Z,6.65
2019-05-22T16:54:21.439Z,6.65
2019-05-22T16:56:50.739Z,6.92
2019-05-22T16:59:40.615Z,6.80
2019-05-22T17:02:12.008Z,6.70
2019-05-22T17:04:41.600Z,7.67
2019-05-22T17:07:11.492Z,8.00
2019-05-22T17:09:41.202Z,8.63
2019-05-22T17:12:11.553Z,7.53
2019-05-22T17:14:41.238Z,8.15
2019-05-22T17:17:10.971Z,7.90
2019-05-22T17:19:40.680Z,7.85
2019-05-22T17:22:10.571Z,8.03
2019-05-22T17:24:40.305Z,7.30
2019-05-22T17:27:10.529Z,7.92
2019-05-22T17:29:40.211Z,7.85
2019-05-22T17:32:10.461Z,8.03
2019-05-22T17:34:41.272Z,8.13
2019-05-22T17:37:13.241Z,7.65
2019-05-22T17:39:44.819Z,11.28
2019-05-22T17:42:15.354Z,7.12
2019-05-22T17:44:46.590Z,7.00
2019-05-22T17:47:17.834Z,7.15
2019-05-22T17:49:47.544Z,7.67
2019-05-22T17:52:18.088Z,7.40
2019-05-22T17:54:48.170Z,8.30
2019-05-22T17:57:18.081Z,7.37
2019-05-22T17:59:48.236Z,7.25
2019-05-22T18:02:19.671Z,7.25
2019-05-22T18:04:50.209Z,6.60
2019-05-22T18:07:19.939Z,6.70
2019-05-22T18:09:50.217Z,6.62
2019-05-22T18:12:20.164Z,6.45
2019-05-22T18:14:50.078Z,6.37
2019-05-22T18:17:21.999Z,6.72
2019-05-22T18:19:51.618Z,6.30
2019-05-22T18:22:21.365Z,6.65
2019-05-22T18:24:51.243Z,6.55
2019-05-22T18:27:20.980Z,6.90
2019-05-22T18:29:50.590Z,6.78
2019-05-22T18:32:20.199Z,7.80
2019-05-22T18:34:50.899Z,6.30
2019-05-22T18:37:20.638Z,6.67
2019-05-22T18:39:50.323Z,6.45
2019-05-22T18:42:20.569Z,6.92
2019-05-22T18:44:50.252Z,6.70
2019-05-22T18:47:20.300Z,6.85
2019-05-22T18:49:49.981Z,6.65
2019-05-22T18:52:19.717Z,6.58
2019-05-22T18:54:51.379Z,8.03
2019-05-22T18:57:21.288Z,7.97
2019-05-22T18:59:51.013Z,10.70
2019-05-22T19:02:22.416Z,6.78
2019-05-22T19:04:52.137Z,7.70
2019-05-22T19:07:23.555Z,7.17
2019-05-22T19:09:53.291Z,6.83
2019-05-22T19:12:23.414Z,7.90
2019-05-22T19:14:53.150Z,8.58
2019-05-22T19:17:22.865Z,7.10
2019-05-22T19:19:52.603Z,7.03
2019-05-22T19:22:22.421Z,7.00
2019-05-22T19:24:52.095Z,7.33
2019-05-22T19:27:21.907Z,6.97
2019-05-22T19:29:51.588Z,7.00
2019-05-22T19:32:23.259Z,6.97
2019-05-22T19:34:52.882Z,7.03
2019-05-22T19:37:22.563Z,7.55
2019-05-22T19:39:53.298Z,8.98
2019-05-22T19:42:23.237Z,7.65
2019-05-22T19:44:52.948Z,7.20
2019-05-22T19:47:23.040Z,7.42
2019-05-22T19:49:52.885Z,7.87
2019-05-22T19:52:40.478Z,8.18
2019-05-22T19:57:23.854Z,7.40
2019-05-22T19:59:53.565Z,7.55
2019-05-22T20:02:23.275Z,7.33
2019-05-22T20:04:53.160Z,8.05
2019-05-22T20:07:24.503Z,8.98
2019-05-22T20:09:54.761Z,8.18
2019-05-22T20:12:25.596Z,8.65
2019-05-22T20:14:55.346Z,7.85
2019-05-22T20:17:27.977Z,7.87
2019-05-22T20:19:57.771Z,9.45
2019-05-22T20:22:28.517Z,9.40
2019-05-22T20:24:58.119Z,9.60
2019-05-22T20:27:27.851Z,9.33
2019-05-22T20:29:58.658Z,9.88
2019-05-22T20:32:28.396Z,10.32
2019-05-22T20:34:58.111Z,10.00
2019-05-22T20:37:28.329Z,9.75
2019-05-22T20:39:58.040Z,10.23
2019-05-22T20:42:28.057Z,9.40
2019-05-22T20:44:57.870Z,10.72
2019-05-22T20:47:28.501Z,10.93
2019-05-22T20:49:59.981Z,11.68
2019-05-22T20:52:30.153Z,11.73
2019-05-22T20:55:03.154Z,11.35
2019-05-22T20:57:33.795Z,12.03
2019-05-22T21:00:06.875Z,12.53
2019-05-22T21:02:38.730Z,11.83
2019-05-22T21:05:11.220Z,13.05
2019-05-22T21:07:46.189Z,12.15
2019-05-22T21:10:15.935Z,12.47
2019-05-22T21:12:46.548Z,13.43
2019-05-22T21:15:16.284Z,11.68
2019-05-22T21:17:46.532Z,11.68
2019-05-22T21:20:17.756Z,11.48
2019-05-22T21:25:17.299Z,11.90
2019-05-22T21:27:46.905Z,11.63
2019-05-22T21:30:17.101Z,11.70
2019-05-22T21:32:46.835Z,12.60
2019-05-22T21:35:17.363Z,12.43
2019-05-22T21:37:47.381Z,13.15
2019-05-22T21:40:18.119Z,13.68
2019-05-22T21:42:49.516Z,12.82
2019-05-22T21:45:19.661Z,13.07
2019-05-22T21:47:49.400Z,13.20
2019-05-22T21:50:20.233Z,13.75
2019-05-22T21:52:49.945Z,12.35
2019-05-22T21:55:19.833Z,12.68
2019-05-22T21:57:49.782Z,12.18
2019-05-22T22:00:40.756Z,14.23
2019-05-22T22:03:12.427Z,13.58
2019-05-22T22:05:42.456Z,12.90
2019-05-22T22:08:12.780Z,12.55
2019-05-22T22:10:42.486Z,12.73
2019-05-22T22:13:13.225Z,10.55
2019-05-22T22:15:46.491Z,12.47
2019-05-22T22:18:16.229Z,12.47
2019-05-22T22:20:45.915Z,11.83
2019-05-22T22:23:15.647Z,13.22
2019-05-22T22:25:46.355Z,12.45
2019-05-22T22:28:17.602Z,12.98
2019-05-22T22:30:52.151Z,14.35
2019-05-22T22:33:31.544Z,14.05
2019-05-22T22:36:02.399Z,13.38
2019-05-22T22:38:33.008Z,12.98
2019-05-22T22:41:02.772Z,12.60
2019-05-22T22:43:32.997Z,13.72
2019-05-22T22:46:19.800Z,16.15
2019-05-22T22:48:52.541Z,13.78
2019-05-22T22:51:24.751Z,13.53
2019-05-22T22:53:55.939Z,13.68
2019-05-22T22:56:28.104Z,14.30
2019-05-22T22:58:58.489Z,14.40
2019-05-22T23:01:31.013Z,14.65
2019-05-22T23:04:01.291Z,14.45
2019-05-22T23:06:31.205Z,14.35
2019-05-22T23:09:01.218Z,14.78
2019-05-22T23:11:32.876Z,14.85
2019-05-22T23:14:03.269Z,15.25
2019-05-22T23:16:33.218Z,15.53
2019-05-22T23:19:16.014Z,14.78
2019-05-22T23:21:45.643Z,15.72
2019-05-22T23:24:16.800Z,15.00
2019-05-22T23:26:47.595Z,14.23
2019-05-22T23:29:17.335Z,14.53
2019-05-22T23:31:48.785Z,14.03
2019-05-22T23:34:18.494Z,14.10
2019-05-22T23:36:48.620Z,13.43
2019-05-22T23:39:18.837Z,14.40
2019-05-22T23:41:48.752Z,13.95
2019-05-22T23:44:19.587Z,14.73
2019-05-22T23:46:49.990Z,14.78
2019-05-22T23:49:19.700Z,16.15
2019-05-22T23:51:49.536Z,15.23
2019-05-22T23:54:22.544Z,15.23
2019-05-22T23:56:54.088Z,14.93
2019-05-22T23:59:25.157Z,15.25
